createdAt,value
2018-06-20T00:00:09.383Z,5.17
2018-06-20T00:02:37.898Z,5.50
2018-06-20T00:05:06.618Z,5.43
2018-06-20T00:07:35.079Z,4.70
2018-06-20T00:10:03.619Z,5.60
2018-06-20T00:12:32.123Z,4.80
2018-06-20T00:15:00.575Z,5.90
2018-06-20T00:17:28.725Z,5.60
2018-06-20T00:19:57.262Z,4.40
2018-06-20T00:22:25.756Z,5.30
2018-06-20T00:24:54.223Z,5.00
2018-06-20T00:27:22.708Z,4.40
2018-06-20T00:29:51.190Z,4.23
2018-06-20T00:32:19.689Z,4.50
2018-06-20T00:34:48.195Z,4.73
2018-06-20T00:37:16.344Z,4.60
2018-06-20T00:39:44.511Z,4.00
2018-06-20T00:42:13.018Z,4.20
2018-06-20T00:44:41.535Z,4.67
2018-06-20T00:47:09.979Z,4.07
2018-06-20T00:49:38.447Z,4.20
2018-06-20T00:52:06.912Z,4.47
2018-06-20T00:54:35.086Z,3.70
2018-06-20T00:57:03.611Z,4.17
2018-06-20T00:59:31.778Z,3.83
2018-06-20T01:02:00.337Z,3.97
2018-06-20T01:04:28.852Z,3.80
2018-06-20T01:06:57.021Z,4.50
2018-06-20T01:09:25.476Z,3.90
2018-06-20T01:11:54.190Z,3.60
2018-06-20T01:14:22.109Z,3.87
2018-06-20T01:16:50.290Z,3.60
2018-06-20T01:19:18.459Z,3.93
2018-06-20T01:21:46.922Z,3.70
2018-06-20T01:24:15.428Z,4.20
2018-06-20T01:26:43.959Z,3.77
2018-06-20T01:29:12.436Z,3.70
2018-06-20T01:31:40.946Z,4.13
2018-06-20T01:34:09.074Z,4.77
2018-06-20T01:36:37.286Z,4.03
2018-06-20T01:39:08.631Z,3.60
2018-06-20T01:41:37.095Z,3.70
2018-06-20T01:44:05.890Z,4.07
2018-06-20T01:46:34.408Z,3.73
2018-06-20T01:49:02.889Z,3.93
2018-06-20T01:51:31.392Z,3.97
2018-06-20T01:53:59.843Z,3.50
2018-06-20T01:56:28.352Z,3.27
2018-06-20T01:58:56.839Z,3.50
2018-06-20T02:01:25.323Z,3.77
2018-06-20T02:03:53.870Z,3.97
2018-06-20T02:06:22.045Z,3.57
2018-06-20T02:08:54.623Z,4.50
2018-06-20T02:11:23.114Z,3.53
2018-06-20T02:13:51.251Z,3.80
2018-06-20T02:16:19.983Z,4.00
2018-06-20T02:18:48.212Z,3.97
2018-06-20T02:21:16.671Z,3.83
2018-06-20T02:23:45.396Z,4.03
2018-06-20T02:26:13.630Z,4.27
2018-06-20T02:28:42.138Z,4.00
2018-06-20T02:31:10.768Z,3.87
2018-06-20T02:33:39.214Z,4.40
2018-06-20T02:36:12.653Z,3.90
2018-06-20T02:38:41.227Z,4.23
2018-06-20T02:41:09.756Z,3.93
2018-06-20T02:43:38.261Z,4.83
2018-06-20T02:46:06.739Z,4.40
2018-06-20T02:48:35.208Z,4.30
2018-06-20T02:51:03.402Z,4.70
2018-06-20T02:53:31.923Z,3.70
2018-06-20T02:56:00.290Z,4.73
2018-06-20T02:58:28.801Z,4.60
2018-06-20T03:00:57.347Z,4.40
2018-06-20T03:03:25.813Z,5.20
2018-06-20T03:05:54.285Z,4.03
2018-06-20T03:08:22.754Z,4.03
2018-06-20T03:10:51.217Z,3.83
2018-06-20T03:13:19.695Z,4.20
2018-06-20T03:15:47.891Z,4.27
2018-06-20T03:18:16.384Z,4.20
2018-06-20T03:20:44.866Z,4.10
2018-06-20T03:23:13.049Z,4.50
2018-06-20T03:25:41.193Z,4.60
2018-06-20T03:28:09.709Z,4.20
2018-06-20T03:30:38.183Z,4.40
2018-06-20T03:33:06.703Z,4.40
2018-06-20T03:35:34.834Z,3.97
2018-06-20T03:38:03.293Z,4.00
2018-06-20T03:40:31.752Z,4.63
2018-06-20T03:42:59.924Z,4.00
2018-06-20T03:45:28.088Z,4.00
2018-06-20T03:47:56.238Z,4.23
2018-06-20T03:50:24.731Z,4.30
2018-06-20T03:52:53.198Z,3.97
2018-06-20T03:55:21.760Z,4.20
2018-06-20T03:57:50.226Z,3.93
2018-06-20T04:00:18.785Z,4.57
2018-06-20T04:02:47.247Z,4.60
2018-06-20T04:05:15.456Z,3.73
2018-06-20T04:07:43.638Z,4.23
2018-06-20T04:10:11.765Z,4.40
2018-06-20T04:12:40.006Z,4.50
2018-06-20T04:15:08.395Z,4.50
2018-06-20T04:17:36.894Z,4.30
2018-06-20T04:20:05.392Z,4.50
2018-06-20T04:22:33.607Z,4.93
2018-06-20T04:25:01.769Z,4.47
2018-06-20T04:27:30.306Z,4.40
2018-06-20T04:29:58.774Z,4.00
2018-06-20T04:32:27.259Z,4.53
2018-06-20T04:34:55.434Z,4.30
2018-06-20T04:37:23.950Z,4.67
2018-06-20T04:39:52.430Z,4.10
2018-06-20T04:42:20.878Z,4.40
2018-06-20T04:44:49.127Z,4.43
2018-06-20T04:47:17.621Z,4.57
2018-06-20T04:49:45.798Z,4.43
2018-06-20T04:52:13.980Z,5.10
2018-06-20T04:54:42.527Z,5.40
2018-06-20T04:57:10.662Z,5.63
2018-06-20T04:59:39.170Z,4.73
2018-06-20T05:02:07.660Z,4.83
2018-06-20T05:04:35.847Z,5.47
2018-06-20T05:07:04.387Z,5.97
2018-06-20T05:09:32.864Z,5.00
2018-06-20T05:12:01.020Z,5.50
2018-06-20T05:14:29.272Z,4.20
2018-06-20T05:16:57.783Z,4.40
2018-06-20T05:19:26.305Z,5.30
2018-06-20T05:21:54.763Z,4.60
2018-06-20T05:24:23.266Z,4.33
2018-06-20T05:26:51.406Z,5.27
2018-06-20T05:29:19.597Z,4.90
2018-06-20T05:31:47.798Z,6.20
2018-06-20T05:34:16.343Z,6.50
2018-06-20T05:36:44.833Z,7.10
2018-06-20T05:39:13.314Z,6.30
2018-06-20T05:41:41.786Z,7.20
2018-06-20T05:44:10.311Z,6.50
2018-06-20T05:46:38.771Z,6.30
2018-06-20T05:49:07.241Z,7.70
2018-06-20T05:51:35.702Z,7.27
2018-06-20T05:54:04.262Z,8.43
2018-06-20T05:56:32.739Z,7.80
2018-06-20T05:59:01.216Z,8.37
2018-06-20T06:01:29.658Z,6.93
2018-06-20T06:03:58.169Z,7.60
2018-06-20T06:06:26.630Z,6.53
2018-06-20T06:08:55.087Z,7.00
2018-06-20T06:11:23.616Z,7.33
2018-06-20T06:13:52.094Z,8.47
2018-06-20T06:16:20.610Z,7.30
2018-06-20T06:18:49.042Z,7.43
2018-06-20T06:21:17.229Z,7.63
2018-06-20T06:23:45.673Z,7.40
2018-06-20T06:26:14.202Z,8.00
2018-06-20T06:28:42.626Z,7.33
2018-06-20T06:31:11.121Z,6.97
2018-06-20T06:33:39.635Z,7.67
2018-06-20T06:36:08.118Z,7.47
2018-06-20T06:38:36.598Z,7.97
2018-06-20T06:41:29.359Z,7.93
2018-06-20T06:43:57.873Z,7.30
2018-06-20T06:46:26.323Z,6.60
2018-06-20T06:48:55.246Z,7.30
2018-06-20T06:51:23.727Z,6.37
2018-06-20T06:53:52.162Z,6.37
2018-06-20T06:56:20.623Z,8.00
2018-06-20T06:58:49.064Z,6.00
2018-06-20T07:01:17.543Z,6.10
2018-06-20T07:03:46.031Z,5.83
2018-06-20T07:06:14.538Z,6.50
2018-06-20T07:08:42.991Z,6.37
2018-06-20T07:11:11.492Z,6.67
2018-06-20T07:13:39.982Z,5.90
2018-06-20T07:16:08.443Z,5.40
2018-06-20T07:18:36.958Z,5.60
2018-06-20T07:21:05.149Z,5.83
2018-06-20T07:23:33.638Z,5.83
2018-06-20T07:26:02.134Z,5.90
2018-06-20T07:28:30.668Z,5.40
2018-06-20T07:30:59.159Z,5.30
2018-06-20T07:33:27.686Z,5.37
2018-06-20T07:35:56.253Z,5.00
2018-06-20T07:38:24.674Z,5.10
2018-06-20T07:40:53.199Z,5.10
2018-06-20T07:43:21.686Z,5.77
2018-06-20T07:45:49.939Z,5.23
2018-06-20T07:48:18.420Z,5.00
2018-06-20T07:50:46.641Z,5.17
2018-06-20T07:53:14.821Z,5.40
2018-06-20T07:55:43.363Z,5.50
2018-06-20T07:58:16.193Z,5.73
2018-06-20T08:00:49.968Z,4.23
2018-06-20T08:03:23.527Z,4.63
2018-06-20T08:05:57.299Z,4.40
2018-06-20T08:08:31.014Z,4.00
2018-06-20T08:11:04.844Z,4.73
2018-06-20T08:13:38.531Z,3.70
2018-06-20T08:16:12.441Z,4.27
2018-06-20T08:18:46.059Z,4.83
2018-06-20T08:21:14.336Z,4.17
2018-06-20T08:23:42.509Z,3.80
2018-06-20T08:26:10.694Z,3.47
2018-06-20T08:28:38.870Z,3.80
2018-06-20T08:31:07.363Z,2.90
2018-06-20T08:33:35.888Z,3.30
2018-06-20T08:36:04.057Z,3.23
2018-06-20T08:38:32.350Z,3.23
2018-06-20T08:41:00.566Z,3.00
2018-06-20T08:43:29.092Z,3.20
2018-06-20T08:45:57.696Z,2.93
2018-06-20T08:48:26.072Z,3.60
2018-06-20T08:50:54.236Z,3.50
2018-06-20T08:53:22.449Z,3.30
2018-06-20T08:55:50.649Z,3.07
2018-06-20T08:58:18.838Z,2.83
2018-06-20T09:00:52.740Z,2.83
2018-06-20T09:03:22.482Z,2.53
2018-06-20T09:05:56.237Z,2.60
2018-06-20T09:08:30.241Z,2.90
2018-06-20T09:11:03.965Z,2.70
2018-06-20T09:13:37.809Z,2.80
2018-06-20T09:16:11.691Z,2.60
2018-06-20T09:18:45.170Z,1.90
2018-06-20T09:21:13.323Z,2.10
2018-06-20T09:23:41.550Z,2.57
2018-06-20T09:26:09.769Z,2.37
2018-06-20T09:28:38.446Z,2.57
2018-06-20T09:31:06.722Z,2.20
2018-06-20T09:33:34.937Z,2.37
2018-06-20T09:36:03.433Z,2.63
2018-06-20T09:38:31.669Z,2.43
2018-06-20T09:41:00.131Z,2.20
2018-06-20T09:43:28.698Z,1.97
2018-06-20T09:45:57.281Z,1.77
2018-06-20T09:48:25.822Z,2.40
2018-06-20T09:50:58.426Z,2.30
2018-06-20T09:53:27.483Z,1.93
2018-06-20T09:55:55.952Z,2.00
2018-06-20T09:58:24.504Z,2.10
2018-06-20T10:00:58.448Z,2.23
2018-06-20T10:03:32.314Z,2.40
2018-06-20T10:06:06.242Z,2.20
2018-06-20T10:08:40.042Z,2.10
2018-06-20T10:11:13.882Z,2.27
2018-06-20T10:13:44.191Z,1.80
2018-06-20T10:16:12.805Z,2.10
2018-06-20T10:18:41.393Z,2.27
2018-06-20T10:21:09.985Z,2.00
2018-06-20T10:23:38.429Z,1.80
2018-06-20T10:26:06.944Z,1.80
2018-06-20T10:28:35.447Z,2.03
2018-06-20T10:31:03.648Z,1.90
2018-06-20T10:33:31.881Z,1.80
2018-06-20T10:36:00.055Z,2.07
2018-06-20T10:38:28.307Z,2.10
2018-06-20T10:40:56.870Z,2.23
2018-06-20T10:43:25.019Z,2.13
2018-06-20T10:45:58.654Z,2.00
2018-06-20T10:48:27.272Z,2.03
2018-06-20T10:50:55.561Z,2.30
2018-06-20T10:53:23.865Z,1.93
2018-06-20T10:55:52.332Z,2.20
2018-06-20T10:58:25.814Z,1.87
2018-06-20T11:00:59.648Z,1.80
2018-06-20T11:03:33.259Z,1.40
2018-06-20T11:06:06.960Z,2.10
2018-06-20T11:08:40.422Z,1.70
2018-06-20T11:11:14.089Z,1.90
2018-06-20T11:13:42.332Z,2.23
2018-06-20T11:16:10.807Z,1.80
2018-06-20T11:18:41.898Z,2.13
2018-06-20T11:21:10.103Z,2.10
2018-06-20T11:23:38.243Z,1.97
2018-06-20T11:26:06.860Z,1.90
2018-06-20T11:28:35.433Z,1.97
2018-06-20T11:31:03.716Z,2.03
2018-06-20T11:33:32.218Z,1.73
2018-06-20T11:36:00.641Z,2.00
2018-06-20T11:38:28.974Z,1.93
2018-06-20T11:40:57.202Z,1.80
2018-06-20T11:43:25.475Z,2.07
2018-06-20T11:45:59.276Z,1.70
2018-06-20T11:48:27.894Z,1.60
2018-06-20T11:50:56.208Z,1.80
2018-06-20T11:53:24.423Z,1.70
2018-06-20T11:55:52.967Z,1.90
2018-06-20T11:58:26.451Z,2.10
2018-06-20T12:01:00.286Z,2.40
2018-06-20T12:03:34.029Z,2.97
2018-06-20T12:06:07.768Z,2.40
2018-06-20T12:08:41.394Z,2.00
2018-06-20T12:11:15.220Z,2.30
2018-06-20T12:13:48.758Z,2.43
2018-06-20T12:16:22.631Z,4.90
2018-06-20T12:18:56.531Z,2.57
2018-06-20T12:21:30.289Z,2.90
2018-06-20T12:24:04.137Z,3.30
2018-06-20T12:26:37.924Z,3.07
2018-06-20T12:29:11.824Z,2.20
2018-06-20T12:31:45.639Z,1.97
2018-06-20T12:34:19.386Z,2.00
2018-06-20T12:36:53.027Z,1.90
2018-06-20T12:39:20.479Z,2.20
2018-06-20T12:41:54.208Z,2.87
2018-06-20T12:44:27.947Z,2.60
2018-06-20T12:47:06.566Z,1.57
2018-06-20T12:49:37.514Z,2.47
2018-06-20T12:52:06.231Z,1.80
2018-06-20T12:54:34.456Z,2.00
2018-06-20T12:57:02.931Z,2.10
2018-06-20T12:59:31.157Z,1.93
2018-06-20T13:02:00.070Z,2.20
2018-06-20T13:04:28.380Z,2.00
2018-06-20T13:06:56.615Z,1.70
2018-06-20T13:09:24.862Z,2.37
2018-06-20T13:11:53.090Z,2.47
2018-06-20T13:14:21.302Z,2.20
2018-06-20T13:16:49.829Z,2.00
2018-06-20T13:19:18.010Z,1.90
2018-06-20T13:21:46.413Z,2.20
2018-06-20T13:24:14.711Z,2.00
2018-06-20T13:26:42.927Z,1.90
2018-06-20T13:29:11.477Z,1.90
2018-06-20T13:31:45.146Z,1.93
2018-06-20T13:34:18.895Z,1.93
2018-06-20T13:36:52.692Z,1.80
2018-06-20T13:39:26.650Z,1.77
2018-06-20T13:42:05.333Z,1.97
2018-06-20T13:44:34.347Z,1.93
2018-06-20T13:47:08.375Z,2.40
2018-06-20T13:49:36.902Z,2.03
2018-06-20T13:52:05.669Z,1.90
2018-06-20T13:54:33.998Z,1.83
2018-06-20T13:57:02.274Z,2.07
2018-06-20T13:59:30.487Z,1.83
2018-06-20T14:01:59.032Z,1.63
2018-06-20T14:04:27.274Z,1.90
2018-06-20T14:06:55.495Z,1.97
2018-06-20T14:09:24.022Z,2.20
2018-06-20T14:11:52.551Z,2.10
2018-06-20T14:14:20.747Z,2.10
2018-06-20T14:16:49.304Z,1.87
2018-06-20T14:19:17.656Z,2.10
2018-06-20T14:21:45.854Z,1.87
2018-06-20T14:24:14.211Z,1.73
2018-06-20T14:26:42.518Z,2.00
2018-06-20T14:29:11.502Z,2.00
2018-06-20T14:31:44.981Z,2.10
2018-06-20T14:34:18.510Z,2.03
2018-06-20T14:36:52.466Z,1.90
2018-06-20T14:39:26.246Z,1.93
2018-06-20T14:42:00.356Z,1.73
2018-06-20T14:44:29.518Z,2.33
2018-06-20T14:46:58.087Z,2.17
2018-06-20T14:49:26.645Z,1.90
2018-06-20T14:51:55.217Z,1.97
2018-06-20T14:54:23.428Z,1.67
2018-06-20T14:56:52.099Z,2.23
2018-06-20T14:59:20.271Z,1.97
2018-06-20T15:01:48.436Z,1.40
2018-06-20T15:04:17.044Z,1.60
2018-06-20T15:06:45.253Z,1.50
2018-06-20T15:09:13.421Z,1.63
2018-06-20T15:11:41.941Z,1.70
2018-06-20T15:14:10.458Z,1.70
2018-06-20T15:16:44.163Z,1.67
2018-06-20T15:19:12.691Z,1.80
2018-06-20T15:21:40.897Z,1.50
2018-06-20T15:24:09.391Z,1.53
2018-06-20T15:26:43.059Z,1.60
2018-06-20T15:29:16.846Z,1.63
2018-06-20T15:31:50.659Z,1.80
2018-06-20T15:34:24.482Z,1.57
2018-06-20T15:36:58.459Z,1.67
2018-06-20T15:39:26.870Z,2.00
2018-06-20T15:41:55.526Z,1.80
2018-06-20T15:44:25.294Z,1.73
2018-06-20T15:46:53.849Z,3.00
2018-06-20T15:49:22.043Z,2.00
2018-06-20T15:51:50.233Z,1.77
2018-06-20T15:54:18.782Z,1.97
2018-06-20T15:56:47.096Z,2.00
2018-06-20T15:59:15.330Z,2.10
2018-06-20T16:01:43.577Z,2.10
2018-06-20T16:04:12.089Z,2.90
2018-06-20T16:06:40.438Z,2.23
2018-06-20T16:09:14.066Z,1.90
2018-06-20T16:11:42.238Z,2.10
2018-06-20T16:14:45.122Z,1.73
2018-06-20T16:17:14.225Z,1.80
2018-06-20T16:19:47.757Z,1.80
2018-06-20T16:22:21.655Z,1.80
2018-06-20T16:24:55.491Z,2.10
2018-06-20T16:27:29.421Z,2.30
2018-06-20T16:30:03.193Z,2.00
2018-06-20T16:32:31.954Z,1.80
2018-06-20T16:35:00.154Z,2.00
2018-06-20T16:37:28.407Z,1.87
2018-06-20T16:39:56.928Z,1.97
2018-06-20T16:42:25.115Z,1.90
2018-06-20T16:44:53.313Z,2.20
2018-06-20T16:47:21.518Z,2.20
2018-06-20T16:49:49.989Z,1.97
2018-06-20T16:52:18.474Z,2.00
2018-06-20T16:54:46.956Z,1.70
2018-06-20T16:57:15.145Z,2.13
2018-06-20T16:59:43.290Z,1.90
2018-06-20T17:02:17.167Z,2.00
2018-06-20T17:04:45.662Z,1.70
2018-06-20T17:07:17.022Z,1.47
2018-06-20T17:09:45.437Z,1.57
2018-06-20T17:12:20.031Z,1.60
2018-06-20T17:14:53.737Z,1.60
2018-06-20T17:17:27.340Z,1.90
2018-06-20T17:20:00.906Z,1.70
2018-06-20T17:22:35.253Z,1.80
2018-06-20T17:25:08.827Z,2.17
2018-06-20T17:27:37.059Z,1.60
2018-06-20T17:30:05.560Z,1.60
2018-06-20T17:32:34.063Z,1.87
2018-06-20T17:35:02.291Z,2.10
2018-06-20T17:37:31.011Z,1.77
2018-06-20T17:39:59.354Z,2.00
2018-06-20T17:42:27.677Z,1.80
2018-06-20T17:44:56.012Z,1.90
2018-06-20T17:47:24.180Z,1.87
2018-06-20T17:49:52.412Z,1.67
2018-06-20T17:52:20.731Z,1.90
2018-06-20T17:54:48.918Z,1.90
2018-06-20T17:57:17.102Z,2.00
2018-06-20T17:59:45.321Z,1.60
2018-06-20T18:02:14.007Z,1.60
2018-06-20T18:04:47.593Z,2.27
2018-06-20T18:07:21.209Z,1.90
2018-06-20T18:09:54.920Z,1.67
2018-06-20T18:12:29.503Z,2.07
2018-06-20T18:15:03.211Z,2.27
2018-06-20T18:17:31.780Z,2.57
2018-06-20T18:20:00.042Z,2.10
2018-06-20T18:22:28.660Z,2.17
2018-06-20T18:24:56.919Z,2.00
2018-06-20T18:27:25.050Z,1.73
2018-06-20T18:29:53.582Z,2.17
2018-06-20T18:32:21.808Z,2.10
2018-06-20T18:34:50.716Z,2.10
2018-06-20T18:37:18.907Z,1.97
2018-06-20T18:39:52.417Z,2.50
2018-06-20T18:42:20.554Z,2.97
2018-06-20T18:44:49.158Z,1.93
2018-06-20T18:47:22.670Z,2.07
2018-06-20T18:49:50.850Z,2.30
2018-06-20T18:52:19.094Z,2.33
2018-06-20T18:54:48.074Z,2.43
2018-06-20T18:58:23.451Z,2.10
2018-06-20T19:00:57.035Z,2.03
2018-06-20T19:03:30.679Z,1.90
2018-06-20T19:06:04.648Z,2.20
2018-06-20T19:08:38.419Z,2.30
2018-06-20T19:11:06.987Z,2.30
2018-06-20T19:13:35.282Z,2.57
2018-06-20T19:16:03.483Z,2.10
2018-06-20T19:18:32.022Z,2.00
2018-06-20T19:21:00.246Z,2.40
2018-06-20T19:23:28.458Z,2.60
2018-06-20T19:25:56.662Z,2.00
2018-06-20T19:28:25.265Z,2.10
2018-06-20T19:30:53.580Z,3.37
2018-06-20T19:33:21.877Z,2.70
2018-06-20T19:35:50.066Z,3.13
2018-06-20T19:38:18.228Z,2.80
2018-06-20T19:40:46.760Z,2.87
2018-06-20T19:43:14.937Z,3.07
2018-06-20T19:45:43.566Z,3.17
2018-06-20T19:48:12.067Z,2.70
2018-06-20T19:50:40.320Z,2.67
2018-06-20T19:53:08.532Z,2.80
2018-06-20T19:55:36.794Z,2.90
2018-06-20T19:58:05.086Z,3.17
2018-06-20T20:00:33.308Z,2.93
2018-06-20T20:03:01.482Z,2.80
2018-06-20T20:05:29.956Z,3.37
2018-06-20T20:07:58.169Z,3.17
2018-06-20T20:10:26.323Z,2.90
2018-06-20T20:12:54.585Z,2.53
2018-06-20T20:15:22.718Z,3.20
2018-06-20T20:17:50.913Z,3.03
2018-06-20T20:20:19.165Z,3.10
2018-06-20T20:22:47.341Z,3.23
2018-06-20T20:25:15.613Z,3.20
2018-06-20T20:27:43.864Z,3.80
2018-06-20T20:30:12.372Z,2.77
2018-06-20T20:32:40.956Z,2.90
2018-06-20T20:35:09.202Z,4.30
2018-06-20T20:37:37.730Z,3.37
2018-06-20T20:40:05.950Z,3.33
2018-06-20T20:42:34.414Z,3.97
2018-06-20T20:45:04.012Z,4.33
2018-06-20T20:47:32.251Z,4.80
2018-06-20T20:50:00.485Z,3.73
2018-06-20T20:52:29.072Z,4.00
2018-06-20T20:54:57.225Z,3.70
2018-06-20T20:57:25.592Z,3.47
2018-06-20T20:59:53.764Z,3.30
2018-06-20T21:02:21.944Z,3.80
2018-06-20T21:04:50.560Z,3.70
2018-06-20T21:07:18.873Z,3.30
2018-06-20T21:09:47.455Z,4.07
2018-06-20T21:12:15.816Z,3.93
2018-06-20T21:14:44.073Z,3.90
2018-06-20T21:17:12.568Z,3.63
2018-06-20T21:19:40.765Z,4.10
2018-06-20T21:22:08.928Z,4.90
2018-06-20T21:24:37.421Z,4.70
2018-06-20T21:27:05.697Z,4.00
2018-06-20T21:29:33.915Z,5.13
2018-06-20T21:32:02.058Z,4.60
2018-06-20T21:34:30.555Z,3.83
2018-06-20T21:36:59.052Z,4.10
2018-06-20T21:39:27.568Z,3.43
2018-06-20T21:41:55.752Z,4.17
2018-06-20T21:44:24.262Z,3.87
2018-06-20T21:46:52.883Z,3.73
2018-06-20T21:49:21.065Z,4.40
2018-06-20T21:51:49.229Z,3.90
2018-06-20T21:54:17.433Z,3.80
2018-06-20T21:56:45.936Z,4.00
2018-06-20T21:59:14.140Z,3.60
2018-06-20T22:01:42.696Z,4.20
2018-06-20T22:04:11.244Z,4.20
2018-06-20T22:06:39.465Z,3.53
2018-06-20T22:09:08.112Z,4.07
2018-06-20T22:11:37.174Z,3.77
2018-06-20T22:14:06.807Z,4.30
2018-06-20T22:16:35.373Z,3.33
2018-06-20T22:19:03.980Z,3.80
2018-06-20T22:21:32.255Z,3.73
2018-06-20T22:24:00.489Z,3.80
2018-06-20T22:26:29.178Z,3.67
2018-06-20T22:28:57.346Z,4.20
2018-06-20T22:31:25.528Z,4.20
2018-06-20T22:33:54.087Z,4.10
2018-06-20T22:36:22.319Z,4.03
2018-06-20T22:38:50.494Z,3.83
2018-06-20T22:41:18.712Z,4.20
2018-06-20T22:43:47.206Z,4.03
2018-06-20T22:46:15.773Z,3.63
2018-06-20T22:48:44.043Z,3.30
2018-06-20T22:51:12.443Z,3.60
2018-06-20T22:53:41.013Z,3.80
2018-06-20T22:56:09.209Z,3.30
2018-06-20T22:58:37.375Z,3.80
2018-06-20T23:01:05.896Z,3.60
2018-06-20T23:03:34.059Z,3.50
2018-06-20T23:06:02.600Z,3.70
2018-06-20T23:08:30.837Z,4.20
2018-06-20T23:10:59.033Z,4.13
2018-06-20T23:13:27.520Z,3.87
2018-06-20T23:15:55.851Z,4.17
2018-06-20T23:18:24.004Z,3.50
2018-06-20T23:20:52.563Z,4.00
2018-06-20T23:23:20.722Z,3.60
2018-06-20T23:25:49.219Z,3.67
2018-06-20T23:28:19.720Z,4.13
2018-06-20T23:30:48.280Z,3.87
2018-06-20T23:33:16.794Z,3.60
2018-06-20T23:35:45.437Z,3.40
2018-06-20T23:38:13.631Z,3.87
2018-06-20T23:40:42.153Z,3.30
2018-06-20T23:43:10.376Z,4.07
2018-06-20T23:45:38.865Z,3.70
2018-06-20T23:48:07.092Z,3.53
2018-06-20T23:50:35.262Z,4.23
2018-06-20T23:53:03.810Z,4.00
2018-06-20T23:55:32.297Z,3.50
2018-06-20T23:58:00.531Z,3.90
